Ust'-Ordynskiy, Russia
Current Conditions -  °F | °C
As of 10:00 AM on Monday 26 Jan 2015 (Local Time) from UIII Reporting Station
Clear Clear  
Wind Chill: -6°   Ceiling: Unl
Heat Index: -6°   Visibility: 6mi
Dew Point: -13°   Wind: 2mph
Humidity: 71%   Direction: NA
Pressure: 30.74"   Gusts: NA
Location:  52.53°N, 104.41°E
Report Text: UIII 260200Z VRB01MPS CAVOK M21/M25 Q1041 NOSIG RMK QFE735/098030820350
Loading
Personal Weather Stations






























Interactive Weather Map New forecast layout! Learn more

10-Day Weather Forecast

Advertisements
Track Severe Weather on mobile